createdAt,value
2018-08-30T00:01:38.890Z,98276.13
2018-08-30T00:04:08.334Z,98282.96
2018-08-30T00:06:37.796Z,98279.80
2018-08-30T00:09:07.738Z,98280.67
2018-08-30T00:11:37.197Z,98283.31
2018-08-30T00:14:06.641Z,98285.39
2018-08-30T00:16:36.084Z,98287.59
2018-08-30T00:19:05.533Z,98292.02
2018-08-30T00:21:34.966Z,98295.27
2018-08-30T00:24:04.535Z,98298.69
2018-08-30T00:26:34.124Z,98304.28
2018-08-30T00:29:03.622Z,98307.17
2018-08-30T00:31:33.038Z,98310.08
2018-08-30T00:34:02.517Z,98315.38
2018-08-30T00:36:31.916Z,98316.70
2018-08-30T00:39:01.369Z,98331.24
2018-08-30T00:41:30.830Z,98333.89
2018-08-30T00:44:00.216Z,98333.17
2018-08-30T00:46:29.699Z,98336.52
2018-08-30T00:48:59.152Z,98336.00
2018-08-30T00:51:28.576Z,98339.22
2018-08-30T00:53:57.982Z,98339.16
2018-08-30T00:56:28.488Z,98345.47
2018-08-30T00:58:57.989Z,98347.30
2018-08-30T01:01:27.415Z,98348.75
2018-08-30T01:03:56.891Z,98349.80
2018-08-30T01:06:26.597Z,98349.95
2018-08-30T01:08:56.032Z,98353.77
2018-08-30T01:11:25.446Z,98359.50
2018-08-30T01:13:54.847Z,98354.45
2018-08-30T01:16:24.280Z,98365.03
2018-08-30T01:18:53.756Z,98367.13
2018-08-30T01:21:23.251Z,98371.09
2018-08-30T01:23:53.208Z,98373.02
2018-08-30T01:26:22.676Z,98377.44
2018-08-30T01:28:52.095Z,98373.92
2018-08-30T01:31:21.559Z,98377.16
2018-08-30T01:33:51.029Z,98373.40
2018-08-30T01:36:20.408Z,98376.85
2018-08-30T01:38:49.798Z,98382.59
2018-08-30T01:41:19.312Z,98386.82
2018-08-30T01:43:48.731Z,98382.86
2018-08-30T01:46:18.274Z,98383.30
2018-08-30T01:48:47.637Z,98378.53
2018-08-30T01:51:17.058Z,98383.30
2018-08-30T01:53:46.500Z,98380.09
2018-08-30T01:56:15.905Z,98386.09
2018-08-30T01:58:45.361Z,98377.82
2018-08-30T02:01:14.727Z,98385.81
2018-08-30T02:03:44.135Z,98386.84
2018-08-30T02:06:13.605Z,98390.23
2018-08-30T02:08:43.037Z,98388.02
2018-08-30T02:11:12.468Z,98385.38
2018-08-30T02:13:41.844Z,98378.23
2018-08-30T02:16:11.242Z,98380.00
2018-08-30T02:18:40.663Z,98380.45
2018-08-30T02:21:10.056Z,98383.02
2018-08-30T02:23:39.547Z,98388.08
2018-08-30T02:26:08.952Z,98390.65
2018-08-30T02:28:38.405Z,98395.33
2018-08-30T02:31:07.874Z,98398.55
2018-08-30T02:33:37.347Z,98393.43
2018-08-30T02:36:07.021Z,98398.84
2018-08-30T02:38:36.455Z,98401.48
2018-08-30T02:41:06.169Z,98402.33
2018-08-30T02:43:35.643Z,98408.94
2018-08-30T02:46:05.112Z,98413.27
2018-08-30T02:48:34.598Z,98413.77
2018-08-30T02:51:04.036Z,98413.06
2018-08-30T02:53:33.544Z,98417.42
2018-08-30T02:56:02.978Z,98415.22
2018-08-30T02:58:32.369Z,98421.83
2018-08-30T03:01:01.856Z,98423.75
2018-08-30T03:03:31.331Z,98422.70
2018-08-30T03:06:00.814Z,98418.75
2018-08-30T03:08:30.277Z,98425.08
2018-08-30T03:10:59.707Z,98427.03
2018-08-30T03:13:29.257Z,98425.71
2018-08-30T03:15:58.679Z,98430.18
2018-08-30T03:18:28.215Z,98431.61
2018-08-30T03:20:57.691Z,98436.22
2018-08-30T03:23:27.132Z,98435.71
2018-08-30T03:25:56.556Z,98437.91
2018-08-30T03:28:25.975Z,98437.10
2018-08-30T03:30:55.444Z,98440.79
2018-08-30T03:33:24.767Z,98439.47
2018-08-30T03:35:54.149Z,98437.34
2018-08-30T03:38:23.621Z,98439.74
2018-08-30T03:40:53.029Z,98437.84
2018-08-30T03:43:22.466Z,98433.58
2018-08-30T03:45:51.878Z,98441.38
2018-08-30T03:48:21.303Z,98439.16
2018-08-30T03:50:50.731Z,98441.50
2018-08-30T03:53:20.146Z,98447.52
2018-08-30T03:55:49.491Z,98447.52
2018-08-30T03:58:18.859Z,98455.64
2018-08-30T04:00:48.342Z,98457.40
2018-08-30T04:03:17.743Z,98460.85
2018-08-30T04:05:47.184Z,98460.85
2018-08-30T04:08:16.583Z,98464.00
2018-08-30T04:10:46.163Z,98468.47
2018-08-30T04:13:15.597Z,98472.43
2018-08-30T04:15:44.988Z,98476.79
2018-08-30T04:18:14.445Z,98474.26
2018-08-30T04:20:43.848Z,98479.64
2018-08-30T04:23:13.265Z,98485.44
2018-08-30T04:25:42.726Z,98481.98
2018-08-30T04:28:12.128Z,98486.75
2018-08-30T04:30:41.588Z,98489.39
2018-08-30T04:33:11.248Z,98489.90
2018-08-30T04:35:40.681Z,98492.03
2018-08-30T04:38:10.116Z,98500.16
2018-08-30T04:40:39.562Z,98495.69
2018-08-30T04:43:09.068Z,98496.19
2018-08-30T04:45:38.472Z,98495.48
2018-08-30T04:48:07.876Z,98498.02
2018-08-30T04:50:37.388Z,98498.22
2018-08-30T04:53:06.791Z,98507.46
2018-08-30T04:55:36.176Z,98503.12
2018-08-30T04:58:05.854Z,98502.66
2018-08-30T05:00:35.229Z,98510.58
2018-08-30T05:03:04.669Z,98521.03
2018-08-30T05:05:34.087Z,98517.30
2018-08-30T05:08:03.514Z,98523.09
2018-08-30T05:10:32.959Z,98518.81
2018-08-30T05:13:02.369Z,98531.52
2018-08-30T05:15:31.801Z,98528.06
2018-08-30T05:18:01.294Z,98531.44
2018-08-30T05:20:30.713Z,98535.59
2018-08-30T05:23:00.200Z,98529.11
2018-08-30T05:25:29.664Z,98532.98
2018-08-30T05:27:59.084Z,98541.52
2018-08-30T05:30:28.515Z,98541.52
2018-08-30T05:32:58.032Z,98541.22
2018-08-30T05:35:27.467Z,98546.27
2018-08-30T05:37:56.920Z,98545.60
2018-08-30T05:40:26.301Z,98553.30
2018-08-30T05:42:55.711Z,98558.48
2018-08-30T05:45:25.093Z,98559.81
2018-08-30T05:47:54.486Z,98560.12
2018-08-30T05:50:23.947Z,98564.36
2018-08-30T05:52:53.404Z,98561.09
2018-08-30T05:55:22.885Z,98562.49
2018-08-30T05:57:52.341Z,98560.51
2018-08-30T06:00:21.789Z,98572.66
2018-08-30T06:02:51.190Z,98566.68
2018-08-30T06:05:20.651Z,98571.95
2018-08-30T06:07:50.060Z,98569.32
2018-08-30T06:10:19.533Z,98561.41
2018-08-30T06:12:48.985Z,98568.00
2018-08-30T06:15:18.418Z,98565.36
2018-08-30T06:17:47.965Z,98558.84
2018-08-30T06:20:17.412Z,98565.44
2018-08-30T06:22:46.901Z,98560.05
2018-08-30T06:25:16.393Z,98560.35
2018-08-30T06:27:45.833Z,98567.66
2018-08-30T06:30:15.281Z,98564.90
2018-08-30T06:32:44.772Z,98565.48
2018-08-30T06:35:14.641Z,98573.09
2018-08-30T06:37:44.085Z,98576.31
2018-08-30T06:40:13.509Z,98584.37
2018-08-30T06:42:42.940Z,98579.88
2018-08-30T06:45:12.353Z,98581.73
2018-08-30T06:47:41.851Z,98586.16
2018-08-30T06:50:11.271Z,98578.39
2018-08-30T06:52:40.635Z,98581.42
2018-08-30T06:55:10.070Z,98579.59
2018-08-30T06:57:39.494Z,98584.68
2018-08-30T07:00:09.011Z,98576.83
2018-08-30T07:02:38.461Z,98579.34
2018-08-30T07:05:08.003Z,98581.05
2018-08-30T07:07:37.434Z,98583.06
2018-08-30T07:10:07.539Z,98594.84
2018-08-30T07:12:36.977Z,98593.33
2018-08-30T07:15:06.789Z,98598.05
2018-08-30T07:17:36.157Z,98596.88
2018-08-30T07:20:05.690Z,98597.93
2018-08-30T07:22:35.202Z,98598.39
2018-08-30T07:25:04.673Z,98601.61
2018-08-30T07:27:34.095Z,98603.42
2018-08-30T07:30:03.552Z,98599.22
2018-08-30T07:32:32.958Z,98606.80
2018-08-30T07:35:02.471Z,98610.05
2018-08-30T07:37:31.766Z,98610.36
2018-08-30T07:40:01.192Z,98614.59
2018-08-30T07:42:30.825Z,98618.73
2018-08-30T07:45:00.228Z,98620.19
2018-08-30T07:47:29.704Z,98621.38
2018-08-30T07:49:59.164Z,98626.87
2018-08-30T07:52:28.626Z,98633.91
2018-08-30T07:54:58.000Z,98630.89
2018-08-30T07:57:27.432Z,98635.21
2018-08-30T07:59:56.931Z,98644.39
2018-08-30T08:02:26.343Z,98649.95
2018-08-30T08:04:55.772Z,98649.44
2018-08-30T08:07:25.240Z,98651.45
2018-08-30T08:09:54.717Z,98657.83
2018-08-30T08:12:24.157Z,98666.27
2018-08-30T08:14:53.632Z,98673.30
2018-08-30T08:17:23.121Z,98674.86
2018-08-30T08:19:52.588Z,98684.49
2018-08-30T08:22:21.987Z,98680.09
2018-08-30T08:24:51.500Z,98682.38
2018-08-30T08:27:20.873Z,98684.39
2018-08-30T08:29:50.269Z,98683.89
2018-08-30T08:32:19.686Z,98682.49
2018-08-30T08:34:49.112Z,98684.39
2018-08-30T08:37:18.537Z,98687.42
2018-08-30T08:39:48.004Z,98694.41
2018-08-30T08:42:17.453Z,98694.29
2018-08-30T08:44:46.864Z,98694.88
2018-08-30T08:47:16.537Z,98696.27
2018-08-30T08:49:45.977Z,98697.70
2018-08-30T08:52:15.447Z,98696.14
2018-08-30T08:54:44.886Z,98694.31
2018-08-30T08:57:14.302Z,98696.14
2018-08-30T08:59:43.757Z,98705.50
2018-08-30T09:02:13.194Z,98705.20
2018-08-30T09:04:42.620Z,98705.70
2018-08-30T09:07:12.205Z,98704.31
2018-08-30T09:09:41.485Z,98702.55
2018-08-30T09:12:10.886Z,98706.95
2018-08-30T09:14:40.362Z,98699.30
2018-08-30T09:17:09.812Z,98707.84
2018-08-30T09:19:39.368Z,98709.88
2018-08-30T09:22:08.789Z,98709.03
2018-08-30T09:24:38.239Z,98711.68
2018-08-30T09:27:07.691Z,98713.80
2018-08-30T09:29:37.124Z,98709.98
2018-08-30T09:32:06.879Z,98708.02
2018-08-30T09:34:36.384Z,98713.89
2018-08-30T09:37:05.929Z,98705.18
2018-08-30T09:39:35.383Z,98700.47
2018-08-30T09:42:04.873Z,98701.72
2018-08-30T09:44:34.292Z,98698.43
2018-08-30T09:47:03.753Z,98697.86
2018-08-30T09:49:33.198Z,98693.59
2018-08-30T09:52:02.703Z,98690.56
2018-08-30T09:54:32.152Z,98691.38
2018-08-30T09:57:01.763Z,98684.83
2018-08-30T09:59:31.111Z,98685.81
2018-08-30T10:02:05.711Z,98693.55
2018-08-30T10:04:35.118Z,98694.52
2018-08-30T10:07:04.582Z,98694.81
2018-08-30T10:09:34.049Z,98696.85
2018-08-30T10:12:03.582Z,98702.31
2018-08-30T10:14:32.978Z,98703.49
2018-08-30T10:17:02.460Z,98697.48
2018-08-30T10:19:31.884Z,98694.38
2018-08-30T10:22:01.328Z,98697.39
2018-08-30T10:24:30.753Z,98697.77
2018-08-30T10:27:00.272Z,98695.03
2018-08-30T10:29:29.701Z,98701.56
2018-08-30T10:31:59.195Z,98705.91
2018-08-30T10:34:28.619Z,98699.73
2018-08-30T10:36:58.079Z,98700.45
2018-08-30T10:39:27.455Z,98701.42
2018-08-30T10:41:56.873Z,98703.74
2018-08-30T10:44:26.278Z,98701.24
2018-08-30T10:46:55.658Z,98699.05
2018-08-30T10:49:25.221Z,98697.30
2018-08-30T10:51:54.671Z,98697.87
2018-08-30T10:54:24.070Z,98694.25
2018-08-30T10:56:53.466Z,98697.15
2018-08-30T10:59:22.890Z,98698.47
2018-08-30T11:01:52.401Z,98696.39
2018-08-30T11:04:21.957Z,98701.24
2018-08-30T11:06:51.482Z,98689.02
2018-08-30T11:09:20.974Z,98690.75
2018-08-30T11:11:50.389Z,98688.70
2018-08-30T11:14:19.929Z,98693.61
2018-08-30T11:16:49.398Z,98689.27
2018-08-30T11:19:18.882Z,98691.52
2018-08-30T11:21:48.361Z,98687.14
2018-08-30T11:24:17.794Z,98683.52
2018-08-30T11:26:47.206Z,98683.30
2018-08-30T11:29:16.623Z,98689.06
2018-08-30T11:31:46.139Z,98687.94
2018-08-30T11:34:15.555Z,98682.09
2018-08-30T11:36:45.004Z,98680.36
2018-08-30T11:39:14.430Z,98677.95
2018-08-30T11:41:44.040Z,98680.09
2018-08-30T11:44:13.485Z,98678.03
2018-08-30T11:46:42.940Z,98684.12
2018-08-30T11:49:12.369Z,98678.95
2018-08-30T11:51:41.876Z,98681.08
2018-08-30T11:54:11.299Z,98684.60
2018-08-30T11:56:40.698Z,98686.79
2018-08-30T11:59:10.195Z,98688.28
2018-08-30T12:01:39.749Z,98697.34
2018-08-30T12:04:10.377Z,98699.98
2018-08-30T12:06:39.898Z,98700.05
2018-08-30T12:09:10.406Z,98705.59
2018-08-30T12:11:41.269Z,98707.95
2018-08-30T12:14:10.821Z,98708.30
2018-08-30T12:16:40.220Z,98707.05
2018-08-30T12:19:09.771Z,98715.83
2018-08-30T12:21:39.196Z,98716.07
2018-08-30T12:24:08.632Z,98721.59
2018-08-30T12:26:38.080Z,98728.17
2018-08-30T12:29:07.614Z,98731.49
2018-08-30T12:31:37.113Z,98731.62
2018-08-30T12:34:06.817Z,98736.35
2018-08-30T12:36:36.152Z,98732.67
2018-08-30T12:39:07.984Z,98729.67
2018-08-30T12:41:37.472Z,98723.66
2018-08-30T12:44:07.156Z,98727.36
2018-08-30T12:46:36.724Z,98727.00
2018-08-30T12:49:06.392Z,98726.70
2018-08-30T12:51:36.070Z,98727.51
2018-08-30T12:54:05.624Z,98721.97
2018-08-30T12:56:35.138Z,98722.84
2018-08-30T12:59:09.833Z,98722.41
2018-08-30T13:01:39.268Z,98719.58
2018-08-30T13:04:08.841Z,98718.40
2018-08-30T13:06:42.371Z,98716.41
2018-08-30T13:09:12.079Z,98713.20
2018-08-30T13:11:41.198Z,98711.83
2018-08-30T13:14:11.135Z,98714.77
2018-08-30T13:16:40.613Z,98712.48
2018-08-30T13:19:10.245Z,98713.30
2018-08-30T13:21:39.673Z,98715.70
2018-08-30T13:24:09.094Z,98715.36
2018-08-30T13:26:38.607Z,98710.68
2018-08-30T13:29:08.640Z,98708.47
2018-08-30T13:31:38.174Z,98705.05
2018-08-30T13:34:07.609Z,98707.55
2018-08-30T13:36:36.905Z,98709.79
2018-08-30T13:39:09.901Z,98711.93
2018-08-30T13:41:39.558Z,98711.36
2018-08-30T13:44:10.493Z,98705.97
2018-08-30T13:46:41.083Z,98694.12
2018-08-30T13:49:11.455Z,98698.28
2018-08-30T13:51:41.062Z,98692.73
2018-08-30T13:54:10.303Z,98700.74
2018-08-30T13:56:40.040Z,98695.56
2018-08-30T13:59:09.442Z,98696.08
2018-08-30T14:01:38.913Z,98696.95
2018-08-30T14:04:08.276Z,98696.78
2018-08-30T14:06:37.560Z,98691.25
2018-08-30T14:09:07.575Z,98696.61
2018-08-30T14:11:37.069Z,98686.73
2018-08-30T14:14:06.541Z,98682.63
2018-08-30T14:16:35.679Z,98683.91
2018-08-30T14:19:05.733Z,98683.32
2018-08-30T14:21:34.991Z,98682.58
2018-08-30T14:24:04.401Z,98679.23
2018-08-30T14:26:33.942Z,98680.47
2018-08-30T14:29:03.223Z,98679.48
2018-08-30T14:31:32.628Z,98679.48
2018-08-30T14:34:02.096Z,98674.98
2018-08-30T14:36:31.540Z,98670.86
2018-08-30T14:39:01.127Z,98672.30
2018-08-30T14:41:30.498Z,98673.67
2018-08-30T14:43:59.882Z,98668.48
2018-08-30T14:46:29.308Z,98665.23
2018-08-30T14:48:58.720Z,98672.55
2018-08-30T14:51:28.367Z,98672.18
2018-08-30T14:53:57.871Z,98670.15
2018-08-30T14:56:27.332Z,98664.02
2018-08-30T14:58:58.791Z,98667.34
2018-08-30T15:01:28.681Z,98665.87
2018-08-30T15:03:58.174Z,98661.63
2018-08-30T15:06:27.589Z,98664.39
2018-08-30T15:08:57.045Z,98657.92
2018-08-30T15:11:26.575Z,98662.80
2018-08-30T15:13:55.957Z,98667.55
2018-08-30T15:16:26.453Z,98669.91
2018-08-30T15:18:55.888Z,98665.98
2018-08-30T15:21:26.351Z,98678.17
2018-08-30T15:23:55.805Z,98680.85
2018-08-30T15:26:25.358Z,98680.64
2018-08-30T15:28:55.345Z,98681.02
2018-08-30T15:31:24.784Z,98681.05
2018-08-30T15:33:54.278Z,98690.36
2018-08-30T15:36:23.629Z,98692.50
2018-08-30T15:38:53.084Z,98689.75
2018-08-30T15:41:22.548Z,98688.31
2018-08-30T15:43:51.988Z,98685.70
2018-08-30T15:46:21.448Z,98685.14
2018-08-30T15:48:51.508Z,98677.68
2018-08-30T15:51:20.812Z,98688.53
2018-08-30T15:53:50.308Z,98689.02
2018-08-30T15:56:19.795Z,98686.27
2018-08-30T15:58:49.374Z,98688.45
2018-08-30T16:01:18.827Z,98690.64
2018-08-30T16:03:48.359Z,98687.80
2018-08-30T16:06:17.841Z,98687.94
2018-08-30T16:08:47.290Z,98691.92
2018-08-30T16:11:16.877Z,98690.08
2018-08-30T16:13:47.640Z,98676.53
2018-08-30T16:16:17.669Z,98680.89
2018-08-30T16:18:47.268Z,98678.12
2018-08-30T16:21:16.856Z,98674.66
2018-08-30T16:23:46.443Z,98683.67
2018-08-30T16:26:15.881Z,98679.34
2018-08-30T16:28:45.336Z,98679.30
2018-08-30T16:31:14.897Z,98673.69
2018-08-30T16:33:44.290Z,98680.00
2018-08-30T16:36:13.740Z,98675.39
2018-08-30T16:38:43.227Z,98683.02
2018-08-30T16:41:12.847Z,98680.62
2018-08-30T16:43:42.249Z,98684.09
2018-08-30T16:46:11.657Z,98677.37
2018-08-30T16:48:41.281Z,98676.98
2018-08-30T16:51:10.875Z,98682.30
2018-08-30T16:53:40.234Z,98682.26
2018-08-30T16:56:09.623Z,98678.23
2018-08-30T16:58:39.087Z,98676.02
2018-08-30T17:01:08.560Z,98672.92
2018-08-30T17:03:38.608Z,98672.10
2018-08-30T17:06:08.543Z,98675.84
2018-08-30T17:08:38.217Z,98679.83
2018-08-30T17:11:07.576Z,98672.38
2018-08-30T17:13:36.984Z,98675.28
2018-08-30T17:16:06.449Z,98674.98
2018-08-30T17:18:36.037Z,98674.13
2018-08-30T17:21:05.546Z,98679.10
2018-08-30T17:23:35.176Z,98675.07
2018-08-30T17:26:04.664Z,98672.81
2018-08-30T17:28:34.149Z,98675.30
2018-08-30T17:31:03.760Z,98675.86
2018-08-30T17:33:33.241Z,98673.24
2018-08-30T17:36:02.715Z,98678.55
2018-08-30T17:38:32.167Z,98684.73
2018-08-30T17:41:01.636Z,98678.73
2018-08-30T17:43:31.125Z,98682.52
2018-08-30T17:46:00.559Z,98683.66
2018-08-30T17:48:30.095Z,98684.45
2018-08-30T17:50:59.652Z,98684.17
2018-08-30T17:53:29.172Z,98690.61
2018-08-30T17:55:58.752Z,98691.56
2018-08-30T17:58:28.137Z,98698.14
2018-08-30T18:00:57.627Z,98698.95
2018-08-30T18:03:27.133Z,98706.48
2018-08-30T18:05:56.533Z,98710.40
2018-08-30T18:08:25.972Z,98707.14
2018-08-30T18:10:55.625Z,98712.75
2018-08-30T18:13:25.121Z,98711.73
2018-08-30T18:15:54.514Z,98714.22
2018-08-30T18:18:24.043Z,98712.71
2018-08-30T18:20:53.411Z,98712.92
2018-08-30T18:23:23.073Z,98715.27
2018-08-30T18:25:52.513Z,98716.23
2018-08-30T18:28:21.950Z,98724.32
2018-08-30T18:30:51.865Z,98719.70
2018-08-30T18:33:21.822Z,98722.20
2018-08-30T18:35:51.436Z,98721.83
2018-08-30T18:38:21.075Z,98728.13
2018-08-30T18:40:50.622Z,98732.03
2018-08-30T18:43:20.068Z,98737.02
2018-08-30T18:45:49.941Z,98739.23
2018-08-30T18:48:19.548Z,98746.43
2018-08-30T18:50:48.975Z,98746.73
2018-08-30T18:53:18.400Z,98752.88
2018-08-30T18:55:47.971Z,98747.75
2018-08-30T18:58:17.481Z,98742.29
2018-08-30T19:00:46.884Z,98752.20
2018-08-30T19:03:16.419Z,98752.56
2018-08-30T19:05:45.772Z,98758.42
2018-08-30T19:08:15.633Z,98756.52
2018-08-30T19:10:45.000Z,98767.23
2018-08-30T19:13:14.472Z,98775.75
2018-08-30T19:15:49.012Z,98776.55
2018-08-30T19:18:23.730Z,98784.51
2018-08-30T19:20:53.187Z,98788.02
2018-08-30T19:23:22.610Z,98793.43
2018-08-30T19:25:52.071Z,98788.80
2018-08-30T19:28:21.468Z,98791.03
2018-08-30T19:30:52.355Z,98792.17
2018-08-30T19:33:23.736Z,98795.13
2018-08-30T19:35:58.709Z,98791.70
2018-08-30T19:38:28.666Z,98795.70
2018-08-30T19:41:04.466Z,98791.44
2018-08-30T19:43:34.405Z,98792.83
2018-08-30T19:46:05.159Z,98792.72
2018-08-30T19:48:35.867Z,98789.61
2018-08-30T19:51:05.612Z,98795.02
2018-08-30T19:53:35.067Z,98795.86
2018-08-30T19:56:04.598Z,98796.56
2018-08-30T19:58:34.035Z,98798.43
2018-08-30T20:01:03.453Z,98797.11
2018-08-30T20:03:32.868Z,98796.36
2018-08-30T20:06:02.286Z,98804.91
2018-08-30T20:08:31.762Z,98811.28
2018-08-30T20:11:01.348Z,98809.17
2018-08-30T20:13:30.933Z,98814.89
2018-08-30T20:16:00.375Z,98815.62
2018-08-30T20:18:29.841Z,98819.50
2018-08-30T20:20:59.279Z,98820.00
2018-08-30T20:23:28.865Z,98821.20
2018-08-30T20:25:58.335Z,98818.90
2018-08-30T20:28:29.941Z,98819.63
2018-08-30T20:30:59.366Z,98819.42
2018-08-30T20:33:28.915Z,98813.66
2018-08-30T20:35:58.387Z,98821.80
2018-08-30T20:38:27.832Z,98824.74
2018-08-30T20:40:57.400Z,98824.84
2018-08-30T20:43:26.794Z,98820.67
2018-08-30T20:45:56.283Z,98827.38
2018-08-30T20:48:25.769Z,98832.98
2018-08-30T20:50:55.200Z,98840.58
2018-08-30T20:53:24.782Z,98832.58
2018-08-30T20:55:54.246Z,98834.80
2018-08-30T20:58:23.660Z,98832.98
2018-08-30T21:00:53.593Z,98837.77
2018-08-30T21:03:23.548Z,98835.00
2018-08-30T21:05:52.901Z,98832.59
2018-08-30T21:08:22.403Z,98829.73
2018-08-30T21:10:51.792Z,98834.41
2018-08-30T21:13:21.203Z,98838.54
2018-08-30T21:15:50.621Z,98839.23
2018-08-30T21:18:20.500Z,98841.78
2018-08-30T21:20:49.925Z,98837.22
2018-08-30T21:23:19.311Z,98835.98
2018-08-30T21:25:48.730Z,98837.22
2018-08-30T21:28:18.190Z,98836.09
2018-08-30T21:30:47.701Z,98832.63
2018-08-30T21:33:17.121Z,98827.25
2018-08-30T21:35:46.643Z,98832.61
2018-08-30T21:38:16.244Z,98831.69
2018-08-30T21:40:45.700Z,98829.05
2018-08-30T21:43:15.107Z,98828.14
2018-08-30T21:45:44.564Z,98827.54
2018-08-30T21:48:13.966Z,98827.86
2018-08-30T21:50:43.885Z,98825.92
2018-08-30T21:53:13.278Z,98827.73
2018-08-30T21:55:42.667Z,98824.27
2018-08-30T21:58:12.111Z,98825.89
2018-08-30T22:00:41.772Z,98821.82
2018-08-30T22:03:11.253Z,98815.83
2018-08-30T22:05:40.695Z,98816.13
2018-08-30T22:08:10.111Z,98818.69
2018-08-30T22:10:39.548Z,98815.47
2018-08-30T22:13:08.901Z,98814.15
2018-08-30T22:15:38.450Z,98815.97
2018-08-30T22:18:08.363Z,98805.09
2018-08-30T22:20:37.752Z,98806.89
2018-08-30T22:23:07.298Z,98807.08
2018-08-30T22:25:36.711Z,98816.91
2018-08-30T22:28:06.526Z,98816.91
2018-08-30T22:30:35.876Z,98819.14
2018-08-30T22:33:05.413Z,98818.54
2018-08-30T22:35:35.324Z,98814.98
2018-08-30T22:38:05.287Z,98813.75
2018-08-30T22:40:34.692Z,98827.09
2018-08-30T22:43:04.115Z,98818.38
2018-08-30T22:45:33.521Z,98816.06
2018-08-30T22:48:02.907Z,98812.01
2018-08-30T22:50:32.354Z,98813.27
2018-08-30T22:53:02.297Z,98813.42
2018-08-30T22:55:31.786Z,98815.31
2018-08-30T22:58:01.153Z,98811.15
2018-08-30T23:00:30.616Z,98804.47
2018-08-30T23:02:59.979Z,98794.65
2018-08-30T23:05:29.389Z,98787.03
2018-08-30T23:07:59.291Z,98784.12
2018-08-30T23:10:29.284Z,98783.52
2018-08-30T23:12:58.887Z,98791.27
2018-08-30T23:15:28.423Z,98795.11
2018-08-30T23:17:57.839Z,98801.80
2018-08-30T23:20:27.371Z,98796.74
2018-08-30T23:22:56.848Z,98795.61
2018-08-30T23:25:30.459Z,98797.84
2018-08-30T23:27:59.993Z,98794.04
2018-08-30T23:30:29.409Z,98794.83
2018-08-30T23:32:58.811Z,98789.14
2018-08-30T23:35:28.723Z,98789.70
2018-08-30T23:37:58.172Z,98785.54
2018-08-30T23:40:27.600Z,98792.94
2018-08-30T23:42:57.047Z,98788.55
2018-08-30T23:45:26.472Z,98790.58
2018-08-30T23:47:55.839Z,98790.97
2018-08-30T23:50:25.323Z,98790.82
2018-08-30T23:52:54.910Z,98784.20
2018-08-30T23:55:24.390Z,98779.08
2018-08-30T23:58:10.593Z,98778.17
